sensor_id;sensor_type;location;lat;lon;timestamp;P1;durP1;ratioP1;P2;durP2;ratioP2
42876;SDS011;42341;40.498;72.818;2023-02-02T00:01:10;83.03;;;41.83;;
42876;SDS011;42341;40.498;72.818;2023-02-02T00:03:36;88.78;;;45.45;;
42876;SDS011;42341;40.498;72.818;2023-02-02T00:06:02;69.32;;;35.30;;
42876;SDS011;42341;40.498;72.818;2023-02-02T00:08:28;72.57;;;37.88;;
42876;SDS011;42341;40.498;72.818;2023-02-02T00:10:54;100.35;;;51.97;;
42876;SDS011;42341;40.498;72.818;2023-02-02T00:13:21;67.97;;;35.90;;
42876;SDS011;42341;40.498;72.818;2023-02-02T00:15:47;58.78;;;30.30;;
42876;SDS011;42341;40.498;72.818;2023-02-02T00:18:13;61.67;;;30.40;;
42876;SDS011;42341;40.498;72.818;2023-02-02T00:20:39;61.88;;;28.60;;
42876;SDS011;42341;40.498;72.818;2023-02-02T00:23:04;48.45;;;26.48;;
42876;SDS011;42341;40.498;72.818;2023-02-02T00:25:30;44.67;;;24.75;;
42876;SDS011;42341;40.498;72.818;2023-02-02T00:27:57;45.13;;;23.77;;
42876;SDS011;42341;40.498;72.818;2023-02-02T00:30:22;41.58;;;23.08;;
42876;SDS011;42341;40.498;72.818;2023-02-02T00:32:48;46.90;;;24.80;;
42876;SDS011;42341;40.498;72.818;2023-02-02T00:35:16;59.40;;;24.65;;
42876;SDS011;42341;40.498;72.818;2023-02-02T00:37:42;50.20;;;24.55;;
42876;SDS011;42341;40.498;72.818;2023-02-02T00:40:09;76.13;;;37.33;;
42876;SDS011;42341;40.498;72.818;2023-02-02T00:42:35;80.18;;;35.63;;
42876;SDS011;42341;40.498;72.818;2023-02-02T00:45:02;92.53;;;41.80;;
42876;SDS011;42341;40.498;72.818;2023-02-02T00:47:46;131.13;;;59.17;;
42876;SDS011;42341;40.498;72.818;2023-02-02T00:50:17;119.50;;;53.03;;
42876;SDS011;42341;40.498;72.818;2023-02-02T00:52:44;83.07;;;40.58;;
42876;SDS011;42341;40.498;72.818;2023-02-02T00:55:12;81.97;;;39.15;;
42876;SDS011;42341;40.498;72.818;2023-02-02T00:57:39;75.13;;;36.72;;
42876;SDS011;42341;40.498;72.818;2023-02-02T01:00:05;84.85;;;40.28;;
42876;SDS011;42341;40.498;72.818;2023-02-02T01:02:33;110.78;;;52.72;;
42876;SDS011;42341;40.498;72.818;2023-02-02T01:05:00;167.65;;;72.40;;
42876;SDS011;42341;40.498;72.818;2023-02-02T01:07:26;163.50;;;70.82;;
42876;SDS011;42341;40.498;72.818;2023-02-02T01:09:52;184.65;;;83.68;;
42876;SDS011;42341;40.498;72.818;2023-02-02T01:12:18;180.82;;;83.00;;
42876;SDS011;42341;40.498;72.818;2023-02-02T01:14:44;155.00;;;74.13;;
42876;SDS011;42341;40.498;72.818;2023-02-02T01:17:10;130.10;;;61.58;;
42876;SDS011;42341;40.498;72.818;2023-02-02T01:19:36;119.05;;;57.13;;
42876;SDS011;42341;40.498;72.818;2023-02-02T01:22:02;106.30;;;52.08;;
42876;SDS011;42341;40.498;72.818;2023-02-02T01:24:28;106.57;;;50.88;;
42876;SDS011;42341;40.498;72.818;2023-02-02T01:26:54;620.17;;;364.50;;
42876;SDS011;42341;40.498;72.818;2023-02-02T01:29:19;237.88;;;124.60;;
42876;SDS011;42341;40.498;72.818;2023-02-02T01:31:45;161.55;;;91.70;;
42876;SDS011;42341;40.498;72.818;2023-02-02T01:34:12;143.45;;;69.32;;
42876;SDS011;42341;40.498;72.818;2023-02-02T01:36:38;121.47;;;60.03;;
42876;SDS011;42341;40.498;72.818;2023-02-02T01:39:04;105.03;;;51.38;;
42876;SDS011;42341;40.498;72.818;2023-02-02T01:41:29;139.10;;;63.60;;
42876;SDS011;42341;40.498;72.818;2023-02-02T01:43:59;119.63;;;55.53;;
42876;SDS011;42341;40.498;72.818;2023-02-02T01:46:28;78.65;;;39.05;;
42876;SDS011;42341;40.498;72.818;2023-02-02T01:49:03;69.07;;;35.15;;
42876;SDS011;42341;40.498;72.818;2023-02-02T01:51:42;85.43;;;43.38;;
42876;SDS011;42341;40.498;72.818;2023-02-02T01:54:14;81.20;;;40.38;;
42876;SDS011;42341;40.498;72.818;2023-02-02T01:56:52;84.25;;;42.88;;
42876;SDS011;42341;40.498;72.818;2023-02-02T01:59:25;115.40;;;53.67;;
42876;SDS011;42341;40.498;72.818;2023-02-02T02:01:52;102.63;;;53.13;;
42876;SDS011;42341;40.498;72.818;2023-02-02T02:04:19;107.68;;;57.55;;
42876;SDS011;42341;40.498;72.818;2023-02-02T02:06:46;111.88;;;57.70;;
42876;SDS011;42341;40.498;72.818;2023-02-02T02:09:12;135.32;;;63.70;;
42876;SDS011;42341;40.498;72.818;2023-02-02T02:11:38;150.57;;;63.97;;
42876;SDS011;42341;40.498;72.818;2023-02-02T02:14:06;118.88;;;53.65;;
42876;SDS011;42341;40.498;72.818;2023-02-02T02:34:06;99.85;;;47.17;;
42876;SDS011;42341;40.498;72.818;2023-02-02T02:39:25;124.05;;;57.10;;
42876;SDS011;42341;40.498;72.818;2023-02-02T02:42:00;129.57;;;62.30;;
42876;SDS011;42341;40.498;72.818;2023-02-02T02:44:31;121.68;;;54.75;;
42876;SDS011;42341;40.498;72.818;2023-02-02T02:46:59;142.00;;;61.28;;
42876;SDS011;42341;40.498;72.818;2023-02-02T02:49:25;132.02;;;58.00;;
42876;SDS011;42341;40.498;72.818;2023-02-02T02:51:51;127.63;;;58.80;;
42876;SDS011;42341;40.498;72.818;2023-02-02T02:56:56;162.75;;;72.88;;
42876;SDS011;42341;40.498;72.818;2023-02-02T03:02:17;96.88;;;43.80;;
42876;SDS011;42341;40.498;72.818;2023-02-02T03:10:43;79.82;;;40.55;;
42876;SDS011;42341;40.498;72.818;2023-02-02T03:13:10;83.93;;;41.67;;
42876;SDS011;42341;40.498;72.818;2023-02-02T03:15:42;90.38;;;41.88;;
42876;SDS011;42341;40.498;72.818;2023-02-02T03:18:09;81.32;;;40.17;;
42876;SDS011;42341;40.498;72.818;2023-02-02T03:20:37;83.53;;;39.10;;
42876;SDS011;42341;40.498;72.818;2023-02-02T03:23:03;88.07;;;38.90;;
42876;SDS011;42341;40.498;72.818;2023-02-02T03:25:29;89.32;;;41.97;;
42876;SDS011;42341;40.498;72.818;2023-02-02T03:27:55;89.90;;;42.72;;
42876;SDS011;42341;40.498;72.818;2023-02-02T03:30:22;98.32;;;48.90;;
42876;SDS011;42341;40.498;72.818;2023-02-02T03:32:49;154.90;;;71.72;;
42876;SDS011;42341;40.498;72.818;2023-02-02T03:35:16;158.57;;;72.50;;
42876;SDS011;42341;40.498;72.818;2023-02-02T03:37:42;90.95;;;47.83;;
42876;SDS011;42341;40.498;72.818;2023-02-02T03:40:09;87.63;;;46.65;;
42876;SDS011;42341;40.498;72.818;2023-02-02T03:42:35;89.35;;;42.65;;
42876;SDS011;42341;40.498;72.818;2023-02-02T03:45:01;78.63;;;37.03;;
42876;SDS011;42341;40.498;72.818;2023-02-02T03:47:28;75.68;;;37.80;;
42876;SDS011;42341;40.498;72.818;2023-02-02T03:49:54;79.75;;;40.55;;
42876;SDS011;42341;40.498;72.818;2023-02-02T03:52:20;90.00;;;38.50;;
42876;SDS011;42341;40.498;72.818;2023-02-02T03:54:46;94.07;;;43.60;;
42876;SDS011;42341;40.498;72.818;2023-02-02T03:57:12;71.70;;;35.80;;
42876;SDS011;42341;40.498;72.818;2023-02-02T03:59:39;73.70;;;36.00;;
42876;SDS011;42341;40.498;72.818;2023-02-02T04:02:05;80.55;;;38.75;;
42876;SDS011;42341;40.498;72.818;2023-02-02T04:04:31;98.20;;;46.03;;
42876;SDS011;42341;40.498;72.818;2023-02-02T04:06:57;115.40;;;53.00;;
42876;SDS011;42341;40.498;72.818;2023-02-02T04:09:23;90.43;;;42.13;;
42876;SDS011;42341;40.498;72.818;2023-02-02T04:11:49;68.25;;;32.88;;
42876;SDS011;42341;40.498;72.818;2023-02-02T04:14:15;75.03;;;36.35;;
42876;SDS011;42341;40.498;72.818;2023-02-02T04:16:41;75.60;;;35.38;;
42876;SDS011;42341;40.498;72.818;2023-02-02T04:19:07;69.53;;;34.10;;
42876;SDS011;42341;40.498;72.818;2023-02-02T04:21:33;72.43;;;35.65;;
42876;SDS011;42341;40.498;72.818;2023-02-02T04:23:59;70.85;;;35.47;;
42876;SDS011;42341;40.498;72.818;2023-02-02T04:26:25;76.28;;;40.70;;
42876;SDS011;42341;40.498;72.818;2023-02-02T04:28:52;88.57;;;41.03;;
42876;SDS011;42341;40.498;72.818;2023-02-02T04:31:18;77.05;;;40.67;;
42876;SDS011;42341;40.498;72.818;2023-02-02T04:33:44;142.30;;;55.28;;
42876;SDS011;42341;40.498;72.818;2023-02-02T04:36:10;144.45;;;61.70;;
42876;SDS011;42341;40.498;72.818;2023-02-02T04:38:36;94.57;;;44.40;;
42876;SDS011;42341;40.498;72.818;2023-02-02T04:41:05;58.83;;;29.75;;
42876;SDS011;42341;40.498;72.818;2023-02-02T04:46:02;60.13;;;29.48;;
42876;SDS011;42341;40.498;72.818;2023-02-02T04:48:28;71.57;;;28.05;;
42876;SDS011;42341;40.498;72.818;2023-02-02T04:51:01;52.97;;;26.45;;
42876;SDS011;42341;40.498;72.818;2023-02-02T04:53:31;43.05;;;22.15;;
42876;SDS011;42341;40.498;72.818;2023-02-02T04:55:57;43.20;;;21.38;;
42876;SDS011;42341;40.498;72.818;2023-02-02T04:58:33;60.63;;;26.92;;
42876;SDS011;42341;40.498;72.818;2023-02-02T05:00:59;77.50;;;38.97;;
42876;SDS011;42341;40.498;72.818;2023-02-02T05:03:25;122.18;;;54.33;;
42876;SDS011;42341;40.498;72.818;2023-02-02T05:05:51;132.95;;;57.90;;
42876;SDS011;42341;40.498;72.818;2023-02-02T05:08:25;98.00;;;45.38;;
42876;SDS011;42341;40.498;72.818;2023-02-02T05:10:51;77.00;;;37.55;;
42876;SDS011;42341;40.498;72.818;2023-02-02T05:13:17;76.88;;;35.80;;
42876;SDS011;42341;40.498;72.818;2023-02-02T05:15:43;72.70;;;33.78;;
42876;SDS011;42341;40.498;72.818;2023-02-02T05:18:09;93.57;;;44.65;;
42876;SDS011;42341;40.498;72.818;2023-02-02T05:20:36;120.55;;;55.47;;
42876;SDS011;42341;40.498;72.818;2023-02-02T05:23:02;152.23;;;82.20;;
42876;SDS011;42341;40.498;72.818;2023-02-02T05:25:28;85.72;;;47.63;;
42876;SDS011;42341;40.498;72.818;2023-02-02T05:27:54;91.40;;;47.25;;
42876;SDS011;42341;40.498;72.818;2023-02-02T05:30:20;86.78;;;44.25;;
42876;SDS011;42341;40.498;72.818;2023-02-02T05:32:46;107.75;;;55.88;;
42876;SDS011;42341;40.498;72.818;2023-02-02T05:35:11;114.20;;;51.00;;
42876;SDS011;42341;40.498;72.818;2023-02-02T05:37:37;98.32;;;50.45;;
42876;SDS011;42341;40.498;72.818;2023-02-02T05:40:03;93.40;;;48.72;;
42876;SDS011;42341;40.498;72.818;2023-02-02T05:42:30;102.70;;;51.53;;
42876;SDS011;42341;40.498;72.818;2023-02-02T05:44:56;100.38;;;52.55;;
42876;SDS011;42341;40.498;72.818;2023-02-02T05:47:21;116.95;;;60.58;;
42876;SDS011;42341;40.498;72.818;2023-02-02T05:49:48;124.93;;;63.47;;
42876;SDS011;42341;40.498;72.818;2023-02-02T05:52:15;132.27;;;69.28;;
42876;SDS011;42341;40.498;72.818;2023-02-02T05:54:43;115.57;;;62.55;;
42876;SDS011;42341;40.498;72.818;2023-02-02T05:57:09;88.10;;;45.42;;
42876;SDS011;42341;40.498;72.818;2023-02-02T05:59:35;83.30;;;43.13;;
42876;SDS011;42341;40.498;72.818;2023-02-02T06:02:01;83.22;;;43.15;;
42876;SDS011;42341;40.498;72.818;2023-02-02T06:04:27;75.30;;;39.67;;
42876;SDS011;42341;40.498;72.818;2023-02-02T06:06:53;84.78;;;42.50;;
42876;SDS011;42341;40.498;72.818;2023-02-02T06:09:19;83.30;;;44.70;;
42876;SDS011;42341;40.498;72.818;2023-02-02T06:11:45;119.05;;;60.90;;
42876;SDS011;42341;40.498;72.818;2023-02-02T06:14:11;201.25;;;106.85;;
42876;SDS011;42341;40.498;72.818;2023-02-02T06:16:37;151.55;;;79.43;;
42876;SDS011;42341;40.498;72.818;2023-02-02T06:19:03;131.02;;;65.80;;
42876;SDS011;42341;40.498;72.818;2023-02-02T06:21:29;122.80;;;65.35;;
42876;SDS011;42341;40.498;72.818;2023-02-02T06:23:56;118.35;;;62.58;;
42876;SDS011;42341;40.498;72.818;2023-02-02T06:26:22;135.68;;;67.32;;
42876;SDS011;42341;40.498;72.818;2023-02-02T06:28:49;93.65;;;49.83;;
42876;SDS011;42341;40.498;72.818;2023-02-02T06:31:17;110.95;;;51.78;;
42876;SDS011;42341;40.498;72.818;2023-02-02T06:33:44;107.00;;;59.25;;
42876;SDS011;42341;40.498;72.818;2023-02-02T06:36:10;101.20;;;55.38;;
42876;SDS011;42341;40.498;72.818;2023-02-02T06:38:36;87.93;;;48.95;;
42876;SDS011;42341;40.498;72.818;2023-02-02T06:41:02;101.40;;;52.40;;
42876;SDS011;42341;40.498;72.818;2023-02-02T06:43:28;81.90;;;40.47;;
42876;SDS011;42341;40.498;72.818;2023-02-02T06:45:58;49.03;;;22.35;;
42876;SDS011;42341;40.498;72.818;2023-02-02T06:48:25;31.33;;;17.90;;
42876;SDS011;42341;40.498;72.818;2023-02-02T06:50:51;29.23;;;16.15;;
42876;SDS011;42341;40.498;72.818;2023-02-02T06:53:18;24.85;;;13.65;;
42876;SDS011;42341;40.498;72.818;2023-02-02T06:55:56;26.38;;;14.20;;
42876;SDS011;42341;40.498;72.818;2023-02-02T06:58:24;25.88;;;14.48;;
42876;SDS011;42341;40.498;72.818;2023-02-02T07:00:50;34.78;;;19.10;;
42876;SDS011;42341;40.498;72.818;2023-02-02T07:03:18;74.55;;;35.40;;
42876;SDS011;42341;40.498;72.818;2023-02-02T07:05:48;49.92;;;23.23;;
42876;SDS011;42341;40.498;72.818;2023-02-02T07:08:14;53.38;;;25.45;;
42876;SDS011;42341;40.498;72.818;2023-02-02T07:10:41;43.13;;;20.20;;
42876;SDS011;42341;40.498;72.818;2023-02-02T07:13:08;25.48;;;16.33;;
42876;SDS011;42341;40.498;72.818;2023-02-02T07:15:36;28.77;;;16.88;;
42876;SDS011;42341;40.498;72.818;2023-02-02T07:18:04;28.52;;;14.52;;
42876;SDS011;42341;40.498;72.818;2023-02-02T07:20:30;25.40;;;14.18;;
42876;SDS011;42341;40.498;72.818;2023-02-02T07:22:57;30.98;;;17.25;;
42876;SDS011;42341;40.498;72.818;2023-02-02T07:25:23;42.03;;;23.20;;
42876;SDS011;42341;40.498;72.818;2023-02-02T07:27:52;40.80;;;23.05;;
42876;SDS011;42341;40.498;72.818;2023-02-02T07:30:19;34.30;;;18.50;;
42876;SDS011;42341;40.498;72.818;2023-02-02T07:32:46;31.02;;;17.95;;
42876;SDS011;42341;40.498;72.818;2023-02-02T07:35:13;70.78;;;30.67;;
42876;SDS011;42341;40.498;72.818;2023-02-02T07:37:40;84.82;;;35.17;;
42876;SDS011;42341;40.498;72.818;2023-02-02T07:40:06;30.27;;;16.17;;
42876;SDS011;42341;40.498;72.818;2023-02-02T07:42:33;36.40;;;17.45;;
42876;SDS011;42341;40.498;72.818;2023-02-02T07:44:59;59.47;;;28.95;;
42876;SDS011;42341;40.498;72.818;2023-02-02T07:47:25;146.05;;;62.10;;
42876;SDS011;42341;40.498;72.818;2023-02-02T07:49:51;78.25;;;35.50;;
42876;SDS011;42341;40.498;72.818;2023-02-02T07:52:17;34.50;;;16.45;;
42876;SDS011;42341;40.498;72.818;2023-02-02T07:54:43;27.85;;;15.45;;
42876;SDS011;42341;40.498;72.818;2023-02-02T07:57:09;28.23;;;14.38;;
42876;SDS011;42341;40.498;72.818;2023-02-02T07:59:37;24.02;;;14.48;;
42876;SDS011;42341;40.498;72.818;2023-02-02T08:02:03;27.30;;;13.55;;
42876;SDS011;42341;40.498;72.818;2023-02-02T08:04:29;49.60;;;26.08;;
42876;SDS011;42341;40.498;72.818;2023-02-02T08:06:57;38.92;;;19.98;;
42876;SDS011;42341;40.498;72.818;2023-02-02T08:09:23;29.65;;;17.80;;
42876;SDS011;42341;40.498;72.818;2023-02-02T08:11:49;36.15;;;19.83;;
42876;SDS011;42341;40.498;72.818;2023-02-02T08:14:15;73.20;;;43.05;;
42876;SDS011;42341;40.498;72.818;2023-02-02T08:16:41;51.50;;;27.23;;
42876;SDS011;42341;40.498;72.818;2023-02-02T08:19:08;64.57;;;32.47;;
42876;SDS011;42341;40.498;72.818;2023-02-02T08:21:35;47.63;;;25.17;;
42876;SDS011;42341;40.498;72.818;2023-02-02T08:24:00;30.25;;;16.73;;
42876;SDS011;42341;40.498;72.818;2023-02-02T08:26:29;38.47;;;19.20;;
42876;SDS011;42341;40.498;72.818;2023-02-02T08:28:56;30.48;;;17.58;;
42876;SDS011;42341;40.498;72.818;2023-02-02T08:31:25;38.95;;;17.48;;
42876;SDS011;42341;40.498;72.818;2023-02-02T08:33:53;29.90;;;15.52;;
42876;SDS011;42341;40.498;72.818;2023-02-02T08:36:20;38.70;;;21.50;;
42876;SDS011;42341;40.498;72.818;2023-02-02T08:38:47;25.88;;;14.73;;
42876;SDS011;42341;40.498;72.818;2023-02-02T08:41:15;30.83;;;15.13;;
42876;SDS011;42341;40.498;72.818;2023-02-02T08:43:43;27.92;;;13.80;;
42876;SDS011;42341;40.498;72.818;2023-02-02T08:46:09;22.80;;;11.95;;
42876;SDS011;42341;40.498;72.818;2023-02-02T08:48:37;24.08;;;13.90;;
42876;SDS011;42341;40.498;72.818;2023-02-02T08:51:04;31.95;;;16.50;;
42876;SDS011;42341;40.498;72.818;2023-02-02T08:53:34;29.23;;;15.20;;
42876;SDS011;42341;40.498;72.818;2023-02-02T08:58:31;30.73;;;16.73;;
42876;SDS011;42341;40.498;72.818;2023-02-02T09:03:31;36.17;;;19.30;;
42876;SDS011;42341;40.498;72.818;2023-02-02T09:05:57;30.77;;;15.90;;
42876;SDS011;42341;40.498;72.818;2023-02-02T09:08:27;30.35;;;14.55;;
42876;SDS011;42341;40.498;72.818;2023-02-02T09:10:53;31.23;;;17.38;;
42876;SDS011;42341;40.498;72.818;2023-02-02T09:13:19;29.98;;;17.02;;
42876;SDS011;42341;40.498;72.818;2023-02-02T09:15:45;31.90;;;17.00;;
42876;SDS011;42341;40.498;72.818;2023-02-02T09:18:10;31.40;;;17.67;;
42876;SDS011;42341;40.498;72.818;2023-02-02T09:20:36;30.13;;;14.95;;
42876;SDS011;42341;40.498;72.818;2023-02-02T09:23:03;41.25;;;19.40;;
42876;SDS011;42341;40.498;72.818;2023-02-02T09:25:29;39.95;;;19.60;;
42876;SDS011;42341;40.498;72.818;2023-02-02T09:27:55;32.22;;;17.02;;
42876;SDS011;42341;40.498;72.818;2023-02-02T09:30:21;27.88;;;16.95;;
42876;SDS011;42341;40.498;72.818;2023-02-02T09:32:49;40.15;;;19.30;;
42876;SDS011;42341;40.498;72.818;2023-02-02T09:38:38;45.38;;;19.30;;
42876;SDS011;42341;40.498;72.818;2023-02-02T09:41:18;37.10;;;18.42;;
42876;SDS011;42341;40.498;72.818;2023-02-02T09:53:03;52.97;;;28.55;;
42876;SDS011;42341;40.498;72.818;2023-02-02T09:55:40;51.22;;;26.58;;
42876;SDS011;42341;40.498;72.818;2023-02-02T10:00:41;135.88;;;46.03;;
42876;SDS011;42341;40.498;72.818;2023-02-02T10:20:21;40.95;;;19.60;;
42876;SDS011;42341;40.498;72.818;2023-02-02T10:23:35;36.38;;;19.70;;
42876;SDS011;42341;40.498;72.818;2023-02-02T10:26:19;25.33;;;13.98;;
42876;SDS011;42341;40.498;72.818;2023-02-02T10:31:17;38.63;;;21.73;;
42876;SDS011;42341;40.498;72.818;2023-02-02T10:34:00;35.90;;;20.30;;
42876;SDS011;42341;40.498;72.818;2023-02-02T10:36:32;32.10;;;19.13;;
42876;SDS011;42341;40.498;72.818;2023-02-02T10:41:55;34.60;;;19.67;;
42876;SDS011;42341;40.498;72.818;2023-02-02T10:44:33;32.07;;;20.20;;
42876;SDS011;42341;40.498;72.818;2023-02-02T10:47:04;24.92;;;15.00;;
42876;SDS011;42341;40.498;72.818;2023-02-02T10:49:36;24.45;;;15.40;;
42876;SDS011;42341;40.498;72.818;2023-02-02T10:57:29;31.15;;;17.60;;
42876;SDS011;42341;40.498;72.818;2023-02-02T11:02:53;36.90;;;18.60;;
42876;SDS011;42341;40.498;72.818;2023-02-02T11:05:29;40.08;;;21.27;;
42876;SDS011;42341;40.498;72.818;2023-02-02T11:08:21;45.85;;;23.38;;
42876;SDS011;42341;40.498;72.818;2023-02-02T11:10:54;76.07;;;35.00;;
42876;SDS011;42341;40.498;72.818;2023-02-02T11:13:32;56.20;;;31.73;;
42876;SDS011;42341;40.498;72.818;2023-02-02T11:18:42;58.60;;;28.77;;
42876;SDS011;42341;40.498;72.818;2023-02-02T11:21:19;53.20;;;26.88;;
42876;SDS011;42341;40.498;72.818;2023-02-02T11:23:51;74.60;;;38.95;;
42876;SDS011;42341;40.498;72.818;2023-02-02T11:26:19;71.10;;;39.25;;
42876;SDS011;42341;40.498;72.818;2023-02-02T11:28:46;94.43;;;50.03;;
42876;SDS011;42341;40.498;72.818;2023-02-02T11:31:35;116.28;;;62.42;;
42876;SDS011;42341;40.498;72.818;2023-02-02T11:34:08;123.68;;;69.60;;
42876;SDS011;42341;40.498;72.818;2023-02-02T11:36:34;179.73;;;100.80;;
42876;SDS011;42341;40.498;72.818;2023-02-02T11:39:13;183.45;;;99.97;;
42876;SDS011;42341;40.498;72.818;2023-02-02T11:41:40;179.50;;;98.05;;
42876;SDS011;42341;40.498;72.818;2023-02-02T11:44:09;169.95;;;90.97;;
42876;SDS011;42341;40.498;72.818;2023-02-02T11:46:50;191.20;;;99.85;;
42876;SDS011;42341;40.498;72.818;2023-02-02T11:49:17;179.07;;;97.18;;
42876;SDS011;42341;40.498;72.818;2023-02-02T11:54:32;174.48;;;96.40;;
42876;SDS011;42341;40.498;72.818;2023-02-02T11:57:00;172.63;;;92.50;;
42876;SDS011;42341;40.498;72.818;2023-02-02T11:59:36;206.05;;;115.25;;
42876;SDS011;42341;40.498;72.818;2023-02-02T12:04:51;180.15;;;100.40;;
42876;SDS011;42341;40.498;72.818;2023-02-02T12:10:31;160.10;;;88.60;;
42876;SDS011;42341;40.498;72.818;2023-02-02T12:19:24;144.15;;;76.00;;
42876;SDS011;42341;40.498;72.818;2023-02-02T12:35:18;137.68;;;79.18;;
42876;SDS011;42341;40.498;72.818;2023-02-02T12:40:43;139.40;;;79.13;;
42876;SDS011;42341;40.498;72.818;2023-02-02T12:48:59;150.30;;;81.78;;
42876;SDS011;42341;40.498;72.818;2023-02-02T13:02:35;146.88;;;77.18;;
42876;SDS011;42341;40.498;72.818;2023-02-02T13:08:02;129.30;;;75.40;;
42876;SDS011;42341;40.498;72.818;2023-02-02T13:10:41;125.20;;;69.97;;
42876;SDS011;42341;40.498;72.818;2023-02-02T13:13:13;165.38;;;87.05;;
42876;SDS011;42341;40.498;72.818;2023-02-02T13:16:04;174.35;;;88.35;;
42876;SDS011;42341;40.498;72.818;2023-02-02T13:21:16;206.43;;;104.25;;
42876;SDS011;42341;40.498;72.818;2023-02-02T13:23:47;198.23;;;101.68;;
42876;SDS011;42341;40.498;72.818;2023-02-02T13:26:17;194.27;;;100.07;;
42876;SDS011;42341;40.498;72.818;2023-02-02T13:31:57;173.02;;;94.82;;
42876;SDS011;42341;40.498;72.818;2023-02-02T13:37:05;179.23;;;96.65;;
42876;SDS011;42341;40.498;72.818;2023-02-02T13:39:38;160.90;;;86.88;;
42876;SDS011;42341;40.498;72.818;2023-02-02T13:42:17;190.10;;;105.63;;
42876;SDS011;42341;40.498;72.818;2023-02-02T13:44:57;171.52;;;97.00;;
42876;SDS011;42341;40.498;72.818;2023-02-02T13:47:36;198.07;;;107.15;;
42876;SDS011;42341;40.498;72.818;2023-02-02T13:50:12;195.52;;;103.15;;
42876;SDS011;42341;40.498;72.818;2023-02-02T13:52:48;198.85;;;104.93;;
42876;SDS011;42341;40.498;72.818;2023-02-02T14:00:43;174.70;;;90.20;;
42876;SDS011;42341;40.498;72.818;2023-02-02T14:03:25;192.07;;;102.90;;
42876;SDS011;42341;40.498;72.818;2023-02-02T14:06:05;201.27;;;106.97;;
42876;SDS011;42341;40.498;72.818;2023-02-02T14:08:58;214.65;;;117.38;;
42876;SDS011;42341;40.498;72.818;2023-02-02T14:11:33;196.95;;;106.20;;
42876;SDS011;42341;40.498;72.818;2023-02-02T14:16:57;168.38;;;91.68;;
42876;SDS011;42341;40.498;72.818;2023-02-02T14:26:59;175.90;;;88.35;;
42876;SDS011;42341;40.498;72.818;2023-02-02T14:34:53;197.77;;;103.95;;
42876;SDS011;42341;40.498;72.818;2023-02-02T14:47:51;188.50;;;95.63;;
42876;SDS011;42341;40.498;72.818;2023-02-02T14:52:55;156.32;;;84.90;;
42876;SDS011;42341;40.498;72.818;2023-02-02T14:55:24;160.18;;;87.32;;
42876;SDS011;42341;40.498;72.818;2023-02-02T14:57:55;176.25;;;93.38;;
42876;SDS011;42341;40.498;72.818;2023-02-02T15:00:30;230.82;;;118.38;;
42876;SDS011;42341;40.498;72.818;2023-02-02T15:06:02;188.35;;;101.57;;
42876;SDS011;42341;40.498;72.818;2023-02-02T15:11:05;197.90;;;103.43;;
42876;SDS011;42341;40.498;72.818;2023-02-02T15:14:02;194.35;;;97.10;;
42876;SDS011;42341;40.498;72.818;2023-02-02T15:16:34;216.00;;;110.43;;
42876;SDS011;42341;40.498;72.818;2023-02-02T15:19:07;204.20;;;106.43;;
42876;SDS011;42341;40.498;72.818;2023-02-02T15:21:41;208.75;;;111.63;;
42876;SDS011;42341;40.498;72.818;2023-02-02T15:24:17;332.33;;;177.80;;
42876;SDS011;42341;40.498;72.818;2023-02-02T15:26:47;337.60;;;191.13;;
42876;SDS011;42341;40.498;72.818;2023-02-02T15:32:17;228.75;;;121.63;;
42876;SDS011;42341;40.498;72.818;2023-02-02T15:34:47;256.88;;;139.07;;
42876;SDS011;42341;40.498;72.818;2023-02-02T15:37:22;266.13;;;143.40;;
42876;SDS011;42341;40.498;72.818;2023-02-02T15:39:56;262.02;;;139.35;;
42876;SDS011;42341;40.498;72.818;2023-02-02T15:42:31;241.93;;;134.70;;
42876;SDS011;42341;40.498;72.818;2023-02-02T15:48:23;233.23;;;121.33;;
42876;SDS011;42341;40.498;72.818;2023-02-02T15:50:54;241.02;;;126.47;;
42876;SDS011;42341;40.498;72.818;2023-02-02T15:53:31;224.00;;;112.07;;
42876;SDS011;42341;40.498;72.818;2023-02-02T15:56:19;194.93;;;102.63;;
42876;SDS011;42341;40.498;72.818;2023-02-02T15:58:50;203.20;;;104.78;;
42876;SDS011;42341;40.498;72.818;2023-02-02T16:01:18;195.63;;;100.63;;
42876;SDS011;42341;40.498;72.818;2023-02-02T16:06:19;199.25;;;100.95;;
42876;SDS011;42341;40.498;72.818;2023-02-02T16:08:46;218.10;;;115.38;;
42876;SDS011;42341;40.498;72.818;2023-02-02T16:11:17;213.52;;;110.07;;
42876;SDS011;42341;40.498;72.818;2023-02-02T16:14:07;249.68;;;126.07;;
42876;SDS011;42341;40.498;72.818;2023-02-02T16:16:38;234.10;;;115.78;;
42876;SDS011;42341;40.498;72.818;2023-02-02T16:21:45;260.35;;;128.00;;
42876;SDS011;42341;40.498;72.818;2023-02-02T16:24:13;235.35;;;119.97;;
42876;SDS011;42341;40.498;72.818;2023-02-02T16:26:43;235.50;;;119.85;;
42876;SDS011;42341;40.498;72.818;2023-02-02T16:29:10;271.77;;;140.73;;
42876;SDS011;42341;40.498;72.818;2023-02-02T16:31:48;404.23;;;195.43;;
42876;SDS011;42341;40.498;72.818;2023-02-02T16:34:41;320.77;;;160.75;;
42876;SDS011;42341;40.498;72.818;2023-02-02T16:39:49;257.52;;;138.63;;
42876;SDS011;42341;40.498;72.818;2023-02-02T16:42:28;305.52;;;154.50;;
42876;SDS011;42341;40.498;72.818;2023-02-02T16:44:56;259.38;;;134.02;;
42876;SDS011;42341;40.498;72.818;2023-02-02T16:50:34;286.30;;;145.45;;
42876;SDS011;42341;40.498;72.818;2023-02-02T16:53:02;361.48;;;195.05;;
42876;SDS011;42341;40.498;72.818;2023-02-02T16:55:30;445.88;;;239.38;;
42876;SDS011;42341;40.498;72.818;2023-02-02T16:57:58;412.70;;;225.27;;
42876;SDS011;42341;40.498;72.818;2023-02-02T17:00:26;398.73;;;207.30;;
42876;SDS011;42341;40.498;72.818;2023-02-02T17:02:59;439.67;;;217.18;;
42876;SDS011;42341;40.498;72.818;2023-02-02T17:05:31;386.52;;;195.00;;
42876;SDS011;42341;40.498;72.818;2023-02-02T17:08:03;317.67;;;165.75;;
42876;SDS011;42341;40.498;72.818;2023-02-02T17:10:35;253.35;;;134.35;;
42876;SDS011;42341;40.498;72.818;2023-02-02T17:13:32;234.82;;;123.75;;
42876;SDS011;42341;40.498;72.818;2023-02-02T17:15:54;225.57;;;116.10;;
42876;SDS011;42341;40.498;72.818;2023-02-02T17:18:20;304.58;;;146.15;;
42876;SDS011;42341;40.498;72.818;2023-02-02T17:20:46;270.80;;;142.27;;
42876;SDS011;42341;40.498;72.818;2023-02-02T17:23:20;238.05;;;129.88;;
42876;SDS011;42341;40.498;72.818;2023-02-02T17:25:46;258.98;;;133.88;;
42876;SDS011;42341;40.498;72.818;2023-02-02T17:28:19;234.38;;;126.32;;
42876;SDS011;42341;40.498;72.818;2023-02-02T17:30:48;205.82;;;116.40;;
42876;SDS011;42341;40.498;72.818;2023-02-02T17:33:45;227.27;;;124.45;;
42876;SDS011;42341;40.498;72.818;2023-02-02T17:36:11;223.80;;;122.43;;
42876;SDS011;42341;40.498;72.818;2023-02-02T17:38:37;310.20;;;152.02;;